Time;durP1;ratioP1;P1;durP2;ratioP2;P2;SDS_P1;SDS_P2;PMS_P1;PMS_P2;Temp;Humidity;BMP_temperature;BMP_pressure;BME280_temperature;BME280_humidity;BME280_pressure;Samples;Min_cycle;Max_cycle;Signal;HPM_P1;HPM_P2
2021/01/18 00:00:23;;;;;;;63.88;29.73;;;;;;;-2.57;100.00;101580.53;5116037;28;20038;-74
2021/01/18 00:03:09;;;;;;;54.63;27.35;;;;;;;-2.54;100.00;101578.13;5114042;28;20037;-73
2021/01/18 00:05:55;;;;;;;52.88;27.42;;;;;;;-2.94;100.00;101581.25;5113882;28;20027;-72
2021/01/18 00:08:40;;;;;;;56.45;27.60;;;;;;;-2.86;100.00;101579.94;5114628;28;20099;-73
2021/01/18 00:11:26;;;;;;;55.15;27.45;;;;;;;-3.09;100.00;101577.91;5114718;28;20462;-73
2021/01/18 00:14:12;;;;;;;56.25;27.50;;;;;;;-3.68;100.00;101574.84;5114616;28;20099;-73
2021/01/18 00:16:57;;;;;;;57.47;29.20;;;;;;;-3.26;100.00;101586.44;5114300;28;20055;-74
2021/01/18 00:19:43;;;;;;;58.95;28.17;;;;;;;-3.22;100.00;101589.19;5113443;28;20100;-73
2021/01/18 00:22:29;;;;;;;52.65;28.05;;;;;;;-3.30;100.00;101589.63;5114102;28;20059;-72
2021/01/18 00:25:23;;;;;;;59.53;28.85;;;;;;;-3.42;100.00;101594.97;5114367;28;20038;-72
2021/01/18 00:28:08;;;;;;;59.78;29.52;;;;;;;-3.52;100.00;101604.66;5099634;28;20053;-72
2021/01/18 00:30:54;;;;;;;64.22;29.35;;;;;;;-3.29;100.00;101597.41;5114847;28;20085;-73
2021/01/18 00:33:40;;;;;;;55.58;27.67;;;;;;;-3.88;100.00;101597.59;5100451;28;20031;-71
2021/01/18 00:36:26;;;;;;;60.78;29.95;;;;;;;-3.03;100.00;101604.72;5114724;28;20435;-72
2021/01/18 00:39:11;;;;;;;55.90;26.90;;;;;;;-3.30;100.00;101600.75;5114858;28;20080;-72
2021/01/18 00:41:57;;;;;;;53.58;26.52;;;;;;;-2.89;100.00;101600.28;5099568;28;20046;-73
2021/01/18 00:44:43;;;;;;;52.90;26.48;;;;;;;-2.77;100.00;101606.03;5099622;28;20028;-73
2021/01/18 00:47:28;;;;;;;56.58;28.08;;;;;;;-2.71;100.00;101609.75;5114272;28;20097;-72
2021/01/18 00:50:17;;;;;;;52.83;26.67;;;;;;;-2.88;100.00;101614.84;5099624;28;20108;-73
2021/01/18 00:53:02;;;;;;;58.35;28.33;;;;;;;-2.53;100.00;101609.78;5113762;28;20140;-72
2021/01/18 00:55:48;;;;;;;58.85;29.45;;;;;;;-2.35;100.00;101608.09;5113735;28;20447;-72
2021/01/18 00:58:34;;;;;;;61.35;31.70;;;;;;;-2.28;100.00;101605.03;5113316;28;20092;-72
2021/01/18 01:01:20;;;;;;;59.28;30.88;;;;;;;-2.30;100.00;101611.75;5113631;28;20035;-73
2021/01/18 01:04:06;;;;;;;62.22;30.80;;;;;;;-2.69;100.00;101612.41;5118025;28;20046;-73
2021/01/18 01:06:51;;;;;;;59.22;30.75;;;;;;;-2.27;100.00;101610.22;5118168;28;20028;-72
2021/01/18 01:09:37;;;;;;;64.05;31.83;;;;;;;-3.13;100.00;101615.28;5119076;28;20016;-73
2021/01/18 01:12:23;;;;;;;61.15;31.15;;;;;;;-2.63;100.00;101631.53;5104238;28;20028;-73
2021/01/18 01:15:10;;;;;;;56.15;29.65;;;;;;;-2.63;100.00;101634.09;5117929;28;20066;-72
2021/01/18 01:17:56;;;;;;;58.45;30.60;;;;;;;-2.84;100.00;101629.59;5118301;28;20088;-72
2021/01/18 01:20:42;;;;;;;59.88;30.52;;;;;;;-2.87;100.00;101629.44;5117805;28;20031;-74
2021/01/18 01:23:28;;;;;;;61.67;30.30;;;;;;;-2.99;100.00;101619.44;5118400;28;20024;-74
2021/01/18 01:26:13;;;;;;;58.58;29.92;;;;;;;-2.83;100.00;101623.66;5117181;28;20093;-74
2021/01/18 01:28:59;;;;;;;58.15;29.67;;;;;;;-2.66;100.00;101621.13;5103158;28;20015;-73
2021/01/18 01:31:47;;;;;;;59.08;30.60;;;;;;;-2.75;100.00;101627.47;5117736;28;20028;-73
2021/01/18 01:34:33;;;;;;;63.15;31.17;;;;;;;-2.75;100.00;101623.25;5102606;28;20363;-73
2021/01/18 01:37:18;;;;;;;55.22;29.70;;;;;;;-2.76;100.00;101620.59;5118434;28;20024;-72
2021/01/18 01:40:06;;;;;;;56.15;27.48;;;;;;;-3.20;100.00;101617.47;5116629;28;20027;-73
2021/01/18 01:42:52;;;;;;;56.97;28.88;;;;;;;-3.36;100.00;101612.34;5103702;28;20023;-72
2021/01/18 01:45:38;;;;;;;54.58;27.42;;;;;;;-3.29;100.00;101615.34;5103426;28;20204;-72
2021/01/18 01:48:25;;;;;;;55.70;28.38;;;;;;;-3.51;100.00;101612.44;5118341;28;20036;-74
2021/01/18 01:51:10;;;;;;;58.17;29.55;;;;;;;-3.34;100.00;101601.38;5117378;28;20038;-74
2021/01/18 01:53:58;;;;;;;58.70;28.85;;;;;;;-3.24;100.00;101605.31;5117634;28;20031;-75
2021/01/18 01:56:45;;;;;;;60.83;30.38;;;;;;;-3.37;100.00;101592.66;5103667;28;20462;-72
2021/01/18 01:59:31;;;;;;;55.97;28.58;;;;;;;-3.25;100.00;101606.13;5117196;28;20374;-73
2021/01/18 02:02:17;;;;;;;53.95;27.38;;;;;;;-2.88;100.00;101608.06;5103336;28;20042;-73
2021/01/18 02:05:12;;;;;;;58.50;27.52;;;;;;;-3.06;100.00;101601.13;5102475;28;20031;-74
2021/01/18 02:08:03;;;;;;;53.70;27.10;;;;;;;-3.22;100.00;101593.47;5102622;28;20050;-73
2021/01/18 02:10:49;;;;;;;58.05;29.67;;;;;;;-2.76;100.00;101592.38;5102807;28;20106;-72
2021/01/18 02:14:02;;;;;;;62.30;30.65;;;;;;;-3.36;100.00;101594.44;5117413;28;20051;-72
2021/01/18 02:16:58;;;;;;;54.70;27.80;;;;;;;-3.47;100.00;101596.44;5102084;28;20024;-73
2021/01/18 02:20:05;;;;;;;60.97;31.40;;;;;;;-3.36;100.00;101603.00;5103276;28;20117;-73
2021/01/18 02:23:06;;;;;;;63.58;32.78;;;;;;;-3.75;100.00;101602.56;5116293;28;20016;-73
2021/01/18 02:25:56;;;;;;;65.50;34.38;;;;;;;-3.71;100.00;101605.38;5116068;28;20024;-73
2021/01/18 02:29:14;;;;;;;60.70;32.05;;;;;;;-3.54;100.00;101606.28;5116162;28;20046;-72
2021/01/18 02:32:32;;;;;;;65.38;32.20;;;;;;;-4.08;100.00;101605.88;5117174;28;20451;-73
2021/01/18 02:35:45;;;;;;;63.95;31.45;;;;;;;-3.70;100.00;101617.38;5117043;28;20066;-72
2021/01/18 02:38:54;;;;;;;64.93;31.92;;;;;;;-3.23;100.00;101619.88;5116233;28;20024;-72
2021/01/18 02:41:48;;;;;;;64.78;32.53;;;;;;;-2.96;100.00;101632.44;5116163;28;20474;-72
2021/01/18 02:44:36;;;;;;;63.13;31.13;;;;;;;-3.15;100.00;101616.91;5116684;28;20035;-72
2021/01/18 02:47:23;;;;;;;57.40;28.55;;;;;;;-3.25;100.00;101613.81;5117013;28;20080;-72
2021/01/18 02:50:10;;;;;;;56.90;28.73;;;;;;;-3.50;100.00;101618.47;5117692;28;20054;-72
2021/01/18 02:52:56;;;;;;;61.30;29.42;;;;;;;-3.34;100.00;101618.47;5116391;28;20023;-72
2021/01/18 02:55:42;;;;;;;52.88;27.65;;;;;;;-3.65;100.00;101618.53;5101594;28;20450;-74
2021/01/18 02:58:34;;;;;;;57.92;28.65;;;;;;;-3.28;100.00;101623.88;5114900;28;20035;-73
2021/01/18 03:01:40;;;;;;;54.38;28.15;;;;;;;-3.03;100.00;101622.66;5117342;28;20386;-74
2021/01/18 03:04:35;;;;;;;56.05;27.38;;;;;;;-3.52;100.00;101613.25;5112625;28;20438;-72
2021/01/18 03:07:42;;;;;;;56.03;28.20;;;;;;;-3.32;100.00;101619.41;5116575;28;20023;-72
2021/01/18 03:10:41;;;;;;;55.95;28.38;;;;;;;-3.13;100.00;101619.56;5101688;28;20085;-72
2021/01/18 03:13:33;;;;;;;54.67;27.15;;;;;;;-3.41;100.00;101608.69;5116836;28;20035;-72
2021/01/18 03:16:22;;;;;;;52.10;26.77;;;;;;;-3.26;100.00;101612.03;5115411;28;20035;-73
2021/01/18 03:19:08;;;;;;;55.67;28.23;;;;;;;-3.19;100.00;101608.97;5101817;28;20027;-72
2021/01/18 03:21:54;;;;;;;57.00;28.58;;;;;;;-3.28;100.00;101601.72;5115348;28;20037;-73
2021/01/18 03:24:40;;;;;;;55.42;27.83;;;;;;;-3.48;100.00;101599.81;5115855;28;20098;-73
2021/01/18 03:27:26;;;;;;;48.75;25.80;;;;;;;-3.58;100.00;101597.53;5099461;28;20035;-72
2021/01/18 03:30:13;;;;;;;53.58;27.60;;;;;;;-3.43;100.00;101593.22;5114701;28;20034;-72
2021/01/18 03:32:59;;;;;;;58.47;27.73;;;;;;;-3.56;100.00;101601.09;5102558;28;20038;-72
2021/01/18 03:35:44;;;;;;;56.35;28.20;;;;;;;-3.73;100.00;101601.00;5116328;28;20062;-72
2021/01/18 03:38:30;;;;;;;55.50;27.58;;;;;;;-3.88;100.00;101598.50;5100958;28;20023;-73
2021/01/18 03:41:19;;;;;;;54.60;26.42;;;;;;;-3.91;100.00;101600.03;5116151;28;20019;-72
2021/01/18 03:44:05;;;;;;;50.15;24.95;;;;;;;-4.20;100.00;101589.88;5116160;28;20436;-71
2021/01/18 03:46:50;;;;;;;46.92;24.95;;;;;;;-4.04;100.00;101593.34;5100306;28;20071;-72
2021/01/18 03:49:36;;;;;;;48.20;25.00;;;;;;;-3.79;100.00;101600.66;5115871;28;20023;-72
2021/01/18 03:52:22;;;;;;;52.78;26.23;;;;;;;-3.48;100.00;101599.81;5113921;28;20019;-73
2021/01/18 03:55:08;;;;;;;50.10;25.65;;;;;;;-3.72;100.00;101603.63;5115604;28;20043;-73
2021/01/18 03:57:55;;;;;;;48.85;24.45;;;;;;;-3.37;100.00;101605.47;5099515;28;20015;-73
2021/01/18 04:00:41;;;;;;;47.53;23.25;;;;;;;-3.99;100.00;101603.84;5115141;28;20089;-73
2021/01/18 04:03:28;;;;;;;46.45;23.85;;;;;;;-4.04;100.00;101606.16;5114451;28;20047;-72
2021/01/18 04:06:13;;;;;;;47.25;24.30;;;;;;;-3.78;100.00;101613.53;5100242;28;20027;-72
2021/01/18 04:08:59;;;;;;;54.38;24.52;;;;;;;-4.11;100.00;101603.19;5114663;28;20096;-73
2021/01/18 04:11:45;;;;;;;49.25;23.50;;;;;;;-4.24;100.00;101613.50;5115064;28;20440;-72
2021/01/18 04:14:31;;;;;;;46.20;24.30;;;;;;;-4.42;100.00;101613.38;5115201;28;20027;-73
2021/01/18 04:17:18;;;;;;;51.70;25.15;;;;;;;-4.03;100.00;101610.44;5100225;28;20085;-73
2021/01/18 04:20:04;;;;;;;48.58;24.27;;;;;;;-3.68;100.00;101613.25;5101771;28;20132;-73
2021/01/18 04:22:51;;;;;;;52.38;26.45;;;;;;;-4.03;100.00;101615.56;5113286;28;20372;-73
2021/01/18 04:25:37;;;;;;;53.28;26.10;;;;;;;-3.66;100.00;101613.31;5100647;28;20023;-73
2021/01/18 04:28:23;;;;;;;53.00;25.17;;;;;;;-3.97;100.00;101610.81;5100118;28;20046;-73
2021/01/18 04:31:09;;;;;;;51.67;25.58;;;;;;;-3.89;100.00;101609.53;5115025;28;20053;-72
2021/01/18 04:33:54;;;;;;;50.90;24.65;;;;;;;-3.76;100.00;101614.50;5114570;28;20024;-72
2021/01/18 04:36:40;;;;;;;51.70;26.65;;;;;;;-3.81;100.00;101615.06;5115446;28;20454;-73
2021/01/18 04:39:26;;;;;;;50.60;25.77;;;;;;;-3.77;100.00;101629.78;5114343;28;20340;-73
2021/01/18 04:42:12;;;;;;;52.60;25.80;;;;;;;-4.52;100.00;101626.44;5114096;28;20061;-72
2021/01/18 04:44:59;;;;;;;54.95;27.40;;;;;;;-4.64;100.00;101629.97;5114731;28;20027;-73
2021/01/18 04:47:47;;;;;;;51.65;25.60;;;;;;;-4.23;100.00;101630.66;5113701;28;20039;-72
2021/01/18 04:50:33;;;;;;;55.53;26.90;;;;;;;-4.53;100.00;101632.34;5100354;28;20360;-73
2021/01/18 04:53:25;;;;;;;53.33;27.50;;;;;;;-4.30;100.00;101625.97;5114362;28;20050;-73
2021/01/18 04:56:49;;;;;;;57.80;28.00;;;;;;;-3.95;100.00;101639.91;5099991;28;20091;-72
2021/01/18 04:59:49;;;;;;;56.47;28.17;;;;;;;-4.33;100.00;101636.91;5076980;28;20360;-72
2021/01/18 05:02:39;;;;;;;60.67;29.60;;;;;;;-4.51;100.00;101647.78;5113518;28;20027;-72
2021/01/18 05:05:29;;;;;;;63.60;29.83;;;;;;;-4.31;100.00;101634.44;5113315;28;20019;-73
2021/01/18 05:08:32;;;;;;;63.15;30.33;;;;;;;-4.21;100.00;101637.59;5114258;28;20028;-73
2021/01/18 05:11:18;;;;;;;57.15;27.90;;;;;;;-4.52;100.00;101649.44;5113725;28;20471;-73
2021/01/18 05:14:04;;;;;;;58.80;29.65;;;;;;;-4.15;100.00;101650.72;5099791;28;20122;-72
2021/01/18 05:16:53;;;;;;;63.83;31.00;;;;;;;-4.01;100.00;101646.38;5114144;28;20035;-72
2021/01/18 05:19:41;;;;;;;61.08;29.67;;;;;;;-4.13;100.00;101653.38;5114698;28;20309;-72
2021/01/18 05:22:27;;;;;;;61.63;31.77;;;;;;;-4.04;100.00;101661.53;5113257;28;20463;-72
2021/01/18 05:25:17;;;;;;;53.72;27.17;;;;;;;-3.83;100.00;101657.59;5099617;28;20035;-73
2021/01/18 05:28:08;;;;;;;56.83;27.45;;;;;;;-4.28;100.00;101657.63;5113847;28;20273;-73
2021/01/18 05:30:54;;;;;;;58.30;27.70;;;;;;;-4.13;100.00;101658.47;5113596;28;20027;-72
2021/01/18 05:33:39;;;;;;;54.95;27.50;;;;;;;-4.12;100.00;101663.69;5113995;28;20024;-73
2021/01/18 05:36:35;;;;;;;53.88;27.38;;;;;;;-4.36;100.00;101669.97;5114119;28;20452;-73
2021/01/18 05:39:23;;;;;;;57.95;29.27;;;;;;;-4.32;100.00;101668.47;5113773;28;20027;-73
2021/01/18 05:42:20;;;;;;;59.75;29.45;;;;;;;-4.20;100.00;101670.06;5112847;28;20024;-73
2021/01/18 05:45:08;;;;;;;66.10;29.42;;;;;;;-4.52;100.00;101672.47;5098954;28;20054;-74
2021/01/18 05:47:55;;;;;;;62.60;30.02;;;;;;;-4.14;100.00;101684.88;5113548;28;20101;-73
2021/01/18 05:50:42;;;;;;;61.03;31.67;;;;;;;-3.88;100.00;101676.94;5101546;28;20041;-73
2021/01/18 05:53:31;;;;;;;67.97;32.55;;;;;;;-4.14;100.00;101688.28;5116321;28;20085;-72
2021/01/18 05:56:18;;;;;;;78.07;41.72;;;;;;;-3.47;100.00;101691.19;5117590;28;20016;-73
2021/01/18 05:59:18;;;;;;;64.00;30.25;;;;;;;-3.66;100.00;101685.00;5102956;28;20097;-73
2021/01/18 06:02:08;;;;;;;64.00;30.63;;;;;;;-3.32;100.00;101694.59;5117667;28;20376;-72
2021/01/18 06:04:55;;;;;;;62.35;32.30;;;;;;;-3.87;100.00;101694.94;5102370;28;20028;-72
2021/01/18 06:07:41;;;;;;;68.07;33.08;;;;;;;-3.27;100.00;101689.69;5102798;28;20020;-73
2021/01/18 06:10:33;;;;;;;69.82;32.08;;;;;;;-3.39;100.00;101700.16;5116584;28;20020;-74
2021/01/18 06:13:23;;;;;;;63.67;31.95;;;;;;;-3.44;100.00;101704.19;5115648;28;20039;-73
2021/01/18 06:16:11;;;;;;;70.60;33.65;;;;;;;-3.67;100.00;101709.72;5116340;28;20436;-73
2021/01/18 06:19:03;;;;;;;68.22;32.40;;;;;;;-3.48;100.00;101709.03;5102369;28;20027;-73
2021/01/18 06:21:49;;;;;;;74.82;34.45;;;;;;;-4.24;100.00;101710.72;5115992;28;20053;-72
2021/01/18 06:24:35;;;;;;;74.22;36.17;;;;;;;-3.47;100.00;101708.22;5116217;28;20332;-72
2021/01/18 06:27:32;;;;;;;63.42;32.58;;;;;;;-3.11;100.00;101717.88;5116280;28;20032;-72
2021/01/18 06:30:28;;;;;;;72.20;35.85;;;;;;;-3.21;100.00;101716.53;5116878;28;20098;-73
2021/01/18 06:33:14;;;;;;;66.45;33.08;;;;;;;-3.25;100.00;101713.72;5117142;28;20028;-73
2021/01/18 06:36:18;;;;;;;60.53;30.00;;;;;;;-3.52;100.00;101708.00;5116711;28;20034;-72
2021/01/18 06:39:07;;;;;;;47.53;24.98;;;;;;;-3.41;100.00;101708.56;5116919;28;20459;-73
2021/01/18 06:42:01;;;;;;;45.50;21.17;;;;;;;-3.48;100.00;101699.69;5116307;28;20382;-73
2021/01/18 06:44:47;;;;;;;44.08;22.65;;;;;;;-2.78;100.00;101710.25;5117094;28;20028;-72
2021/01/18 06:47:33;;;;;;;39.50;20.80;;;;;;;-3.36;100.00;101705.47;5116017;28;20035;-73
2021/01/18 06:50:22;;;;;;;47.40;22.75;;;;;;;-3.05;100.00;101700.28;5116055;28;20069;-73
2021/01/18 06:53:10;;;;;;;45.42;22.70;;;;;;;-3.48;100.00;101696.22;5116340;28;20035;-73
2021/01/18 06:56:11;;;;;;;45.55;23.45;;;;;;;-3.35;100.00;101703.75;5116482;28;20020;-72
2021/01/18 06:59:27;;;;;;;49.22;24.38;;;;;;;-3.37;100.00;101707.94;5116059;28;20051;-73
2021/01/18 07:02:21;;;;;;;47.45;22.77;;;;;;;-3.47;100.00;101721.94;5116218;28;20466;-73
2021/01/18 07:05:11;;;;;;;44.35;22.58;;;;;;;-3.27;100.00;101708.50;5116250;28;20027;-72
2021/01/18 07:08:03;;;;;;;51.53;25.65;;;;;;;-3.83;100.00;101709.69;5101351;28;20117;-73
2021/01/18 07:10:50;;;;;;;49.35;24.90;;;;;;;-3.53;100.00;101724.19;5116943;28;20106;-72
2021/01/18 07:13:37;;;;;;;44.63;22.80;;;;;;;-3.56;100.00;101712.88;5115608;28;20031;-72
2021/01/18 07:16:24;;;;;;;40.80;20.83;;;;;;;-3.30;100.00;101715.16;5114814;28;20124;-72
2021/01/18 07:19:10;;;;;;;44.70;22.05;;;;;;;-2.87;100.00;101732.88;5101420;28;20470;-72
2021/01/18 07:22:24;;;;;;;42.25;22.90;;;;;;;-2.90;100.00;101737.81;5115834;28;20031;-72
2021/01/18 07:25:12;;;;;;;44.90;22.60;;;;;;;-2.87;100.00;101735.44;5100969;28;20026;-73
2021/01/18 07:27:59;;;;;;;40.33;21.48;;;;;;;-2.72;100.00;101740.47;5101407;28;20367;-73
2021/01/18 07:30:45;;;;;;;39.95;22.27;;;;;;;-2.74;100.00;101745.50;5116063;28;20028;-73
2021/01/18 07:33:31;;;;;;;39.60;21.73;;;;;;;-2.47;100.00;101746.03;5114557;28;20039;-73
2021/01/18 07:36:43;;;;;;;40.55;21.67;;;;;;;-2.76;100.00;101738.53;5115716;28;20051;-73
2021/01/18 07:39:34;;;;;;;43.03;22.73;;;;;;;-2.90;100.00;101742.09;5115737;28;20066;-73
2021/01/18 07:42:49;;;;;;;42.60;21.30;;;;;;;-2.53;100.00;101744.03;5115380;28;20371;-72
2021/01/18 07:45:35;;;;;;;40.65;20.98;;;;;;;-2.74;100.00;101750.63;5107899;28;20054;-72
2021/01/18 07:48:28;;;;;;;41.33;21.48;;;;;;;-2.04;100.00;101749.94;5115237;28;20023;-72
2021/01/18 07:51:20;;;;;;;40.40;21.27;;;;;;;-2.28;100.00;101751.28;5114975;28;20478;-73
2021/01/18 07:54:06;;;;;;;40.67;21.83;;;;;;;-2.15;100.00;101751.97;5115410;28;20058;-72
2021/01/18 07:56:51;;;;;;;38.17;21.35;;;;;;;-2.38;100.00;101754.19;5115555;28;20066;-73
2021/01/18 07:59:37;;;;;;;40.80;21.90;;;;;;;-2.11;100.00;101760.69;5114575;28;20023;-73
2021/01/18 08:02:23;;;;;;;35.67;18.63;;;;;;;-2.41;100.00;101764.31;5115143;28;20055;-73
2021/01/18 08:05:26;;;;;;;37.88;20.20;;;;;;;-2.12;100.00;101762.41;5100208;28;20023;-74
2021/01/18 08:08:17;;;;;;;38.88;20.70;;;;;;;-1.72;100.00;101775.50;5114987;28;20038;-73
2021/01/18 08:11:16;;;;;;;40.28;20.65;;;;;;;-0.86;100.00;101767.56;5114411;28;20036;-73
2021/01/18 08:14:02;;;;;;;39.25;21.15;;;;;;;-0.69;100.00;101771.75;5114801;28;20026;-72
2021/01/18 08:16:48;;;;;;;37.50;20.77;;;;;;;-0.18;100.00;101764.59;5113110;28;20012;-73
2021/01/18 08:19:34;;;;;;;34.20;18.67;;;;;;;-0.29;100.00;101764.94;5114771;28;20049;-72
2021/01/18 08:22:28;;;;;;;33.22;18.75;;;;;;;-0.31;100.00;101767.44;5100359;28;20439;-73
2021/01/18 08:25:14;;;;;;;33.75;17.52;;;;;;;-0.42;100.00;101762.66;5099863;28;20074;-73
2021/01/18 08:28:00;;;;;;;35.90;19.58;;;;;;;-0.03;100.00;101749.75;5114459;28;20337;-72
2021/01/18 08:30:55;;;;;;;36.38;19.95;;;;;;;0.23;100.00;101749.97;5114131;28;20396;-73
2021/01/18 08:33:41;;;;;;;35.08;20.35;;;;;;;0.26;100.00;101750.94;5100001;28;20020;-72
2021/01/18 08:36:31;;;;;;;32.67;18.85;;;;;;;-0.25;100.00;101747.13;5113892;28;20016;-73
2021/01/18 08:39:18;;;;;;;31.00;18.08;;;;;;;-0.73;100.00;101741.56;5114825;28;20020;-74
2021/01/18 08:42:04;;;;;;;35.13;18.33;;;;;;;-0.21;100.00;101748.13;5114378;28;20379;-73
2021/01/18 08:44:59;;;;;;;33.08;19.00;;;;;;;0.13;100.00;101749.56;5114452;28;20030;-72
2021/01/18 08:47:53;;;;;;;32.47;18.50;;;;;;;0.26;100.00;101743.22;5113373;28;20043;-72
2021/01/18 08:50:54;;;;;;;35.42;19.17;;;;;;;0.94;100.00;101751.03;5114841;28;20038;-72
2021/01/18 08:53:41;;;;;;;34.83;19.65;;;;;;;0.52;100.00;101747.69;5114525;28;20027;-72
2021/01/18 08:56:26;;;;;;;31.98;18.45;;;;;;;0.01;100.00;101743.06;5114596;28;20106;-73
2021/01/18 08:59:15;;;;;;;29.60;17.73;;;;;;;0.77;100.00;101745.25;5114515;28;20180;-73
2021/01/18 09:02:01;;;;;;;31.95;18.02;;;;;;;0.32;100.00;101751.19;5114850;28;20097;-73
2021/01/18 09:04:47;;;;;;;31.23;17.98;;;;;;;0.60;100.00;101741.13;5099369;28;20028;-73
2021/01/18 09:07:34;;;;;;;32.10;18.25;;;;;;;0.43;100.00;101738.75;5113280;28;20363;-72
2021/01/18 09:10:22;;;;;;;30.77;18.45;;;;;;;0.27;100.00;101751.84;5113661;28;20371;-73
2021/01/18 09:13:08;;;;;;;30.10;17.48;;;;;;;-0.28;100.00;101754.72;5114256;28;20463;-73
2021/01/18 09:15:56;;;;;;;31.70;18.48;;;;;;;0.29;100.00;101745.03;5113585;28;20058;-73
2021/01/18 09:18:42;;;;;;;31.77;17.30;;;;;;;0.21;100.00;101747.31;5099481;28;20031;-74
2021/01/18 09:21:29;;;;;;;31.10;17.55;;;;;;;0.26;100.00;101734.59;5113519;28;20024;-73
2021/01/18 09:24:15;;;;;;;27.52;16.40;;;;;;;0.27;100.00;101741.53;5102124;28;20328;-73
2021/01/18 09:27:00;;;;;;;32.13;17.95;;;;;;;-0.06;100.00;101733.31;5117856;28;20027;-74
2021/01/18 09:30:09;;;;;;;31.55;17.83;;;;;;;-0.41;100.00;101744.72;5117846;28;20023;-73
2021/01/18 09:32:57;;;;;;;32.25;16.95;;;;;;;0.19;100.00;101736.06;5117796;28;20042;-73
2021/01/18 09:35:44;;;;;;;30.95;17.38;;;;;;;0.05;100.00;101711.44;5117914;28;20027;-73
2021/01/18 09:38:30;;;;;;;30.15;17.02;;;;;;;0.18;100.00;101718.84;5117608;28;20015;-73
2021/01/18 09:41:16;;;;;;;30.23;17.00;;;;;;;0.10;100.00;101709.94;5116843;28;20027;-73
2021/01/18 09:44:06;;;;;;;28.40;16.15;;;;;;;0.00;100.00;101705.25;5117004;28;20034;-73
2021/01/18 09:46:53;;;;;;;32.75;17.17;;;;;;;-0.14;100.00;101708.94;5116790;28;20117;-73
2021/01/18 09:49:39;;;;;;;30.75;17.83;;;;;;;0.16;100.00;101705.00;5117857;28;20095;-73
2021/01/18 09:52:26;;;;;;;31.02;17.75;;;;;;;0.13;100.00;101699.75;5117484;28;20027;-74
2021/01/18 09:55:16;;;;;;;29.52;16.98;;;;;;;0.27;100.00;101701.16;5103662;28;20074;-73
2021/01/18 09:58:29;;;;;;;32.03;17.48;;;;;;;0.14;100.00;101693.78;5118503;28;20421;-74
2021/01/18 10:01:19;;;;;;;31.73;17.30;;;;;;;-0.13;100.00;101690.09;5117492;28;20023;-74
2021/01/18 10:04:05;;;;;;;30.65;18.02;;;;;;;0.43;100.00;101682.03;5116183;28;20375;-74
2021/01/18 10:07:02;;;;;;;31.08;18.35;;;;;;;0.17;100.00;101685.28;5116223;28;20042;-74
2021/01/18 10:09:49;;;;;;;29.25;17.08;;;;;;;0.43;100.00;101680.31;5101669;28;20043;-74
2021/01/18 10:12:40;;;;;;;31.75;17.17;;;;;;;0.28;100.00;101684.00;5116578;28;20402;-73
2021/01/18 10:15:28;;;;;;;29.60;16.70;;;;;;;0.42;100.00;101673.41;5118287;28;20028;-73
2021/01/18 10:18:37;;;;;;;25.25;15.13;;;;;;;0.58;100.00;101668.03;5116837;28;20418;-74
2021/01/18 10:21:33;;;;;;;24.55;14.57;;;;;;;0.35;100.00;101676.56;5117260;28;20140;-74
2021/01/18 10:24:27;;;;;;;23.63;14.27;;;;;;;0.17;100.00;101664.66;5116752;28;20400;-74
2021/01/18 10:27:27;;;;;;;24.80;14.07;;;;;;;0.30;100.00;101661.75;5117397;28;20035;-75
2021/01/18 10:30:15;;;;;;;26.48;15.07;;;;;;;0.30;100.00;101664.31;5116779;28;20120;-74
2021/01/18 10:33:01;;;;;;;27.50;15.50;;;;;;;0.40;100.00;101666.44;5102237;28;20024;-72
2021/01/18 10:35:47;;;;;;;28.45;15.57;;;;;;;0.69;100.00;101653.84;5100957;28;20023;-73
2021/01/18 10:38:37;;;;;;;29.83;15.80;;;;;;;1.06;100.00;101651.75;5116701;28;20023;-74
2021/01/18 10:41:24;;;;;;;25.75;14.63;;;;;;;1.01;100.00;101636.94;5115290;28;20023;-74
2021/01/18 10:44:10;;;;;;;30.85;16.23;;;;;;;0.70;100.00;101644.38;5116126;28;20124;-74
2021/01/18 10:46:56;;;;;;;28.98;16.17;;;;;;;0.85;100.00;101644.94;5116235;28;20039;-75
2021/01/18 10:49:51;;;;;;;28.90;16.08;;;;;;;0.46;100.00;101643.47;5117093;28;20027;-73
2021/01/18 10:52:41;;;;;;;28.60;16.15;;;;;;;0.46;100.00;101643.47;5102220;28;20039;-73
2021/01/18 10:55:27;;;;;;;27.70;15.52;;;;;;;0.52;100.00;101643.72;5117158;28;20413;-73
2021/01/18 10:58:25;;;;;;;29.80;16.17;;;;;;;0.07;100.00;101637.66;5116233;28;20058;-73
2021/01/18 11:01:13;;;;;;;26.08;15.40;;;;;;;0.04;100.00;101638.44;5115194;28;20027;-73
2021/01/18 11:04:05;;;;;;;25.67;15.07;;;;;;;-0.16;100.00;101638.50;5115057;28;20035;-73
2021/01/18 11:06:54;;;;;;;28.83;15.32;;;;;;;-0.19;100.00;101635.78;5116479;28;20023;-74
2021/01/18 11:09:40;;;;;;;24.50;14.73;;;;;;;0.07;100.00;101635.09;5116338;28;20023;-73
2021/01/18 11:12:45;;;;;;;32.35;16.35;;;;;;;-0.26;100.00;101633.78;5116727;28;20110;-73
2021/01/18 11:15:37;;;;;;;28.85;17.08;;;;;;;-0.50;100.00;101635.34;5102504;28;20525;-74
2021/01/18 11:18:22;;;;;;;29.30;15.75;;;;;;;-0.34;100.00;101636.06;5117376;28;20501;-73
2021/01/18 11:21:08;;;;;;;28.55;16.27;;;;;;;-0.14;100.00;101637.72;5115523;28;20029;-74
2021/01/18 11:23:54;;;;;;;32.78;18.55;;;;;;;0.17;100.00;101624.34;5115876;28;20023;-74
2021/01/18 11:26:40;;;;;;;30.77;17.40;;;;;;;0.09;100.00;101636.06;5116276;28;20030;-73
2021/01/18 11:29:29;;;;;;;28.52;16.52;;;;;;;-0.11;100.00;101630.09;5101065;28;20467;-75
2021/01/18 11:32:16;;;;;;;30.30;17.05;;;;;;;0.09;100.00;101631.75;5115833;28;20082;-73
2021/01/18 11:35:03;;;;;;;30.73;16.40;;;;;;;0.27;100.00;101634.16;5115649;28;20497;-74
2021/01/18 11:37:48;;;;;;;30.88;17.88;;;;;;;-0.14;100.00;101639.41;5100598;28;20031;-73
2021/01/18 11:40:34;;;;;;;34.35;18.95;;;;;;;0.29;100.00;101637.69;5100489;28;20024;-74
2021/01/18 11:43:20;;;;;;;39.58;21.50;;;;;;;0.43;100.00;101639.06;5114402;28;20525;-72
2021/01/18 11:46:05;;;;;;;32.20;18.63;;;;;;;0.35;100.00;101640.50;5115128;28;20126;-73
2021/01/18 11:48:51;;;;;;;35.63;18.98;;;;;;;-0.03;100.00;101639.00;5101415;28;20042;-74
2021/01/18 11:51:37;;;;;;;32.90;18.38;;;;;;;-0.34;100.00;101641.19;5115672;28;20028;-73
2021/01/18 11:54:23;;;;;;;34.22;19.13;;;;;;;-0.34;100.00;101632.59;5115469;28;20040;-73
2021/01/18 11:57:08;;;;;;;36.88;19.15;;;;;;;-0.25;100.00;101632.94;5100659;28;20012;-74
2021/01/18 11:59:54;;;;;;;34.88;19.17;;;;;;;0.29;100.00;101640.28;5115068;28;20359;-73
2021/01/18 12:02:40;;;;;;;29.10;16.20;;;;;;;0.10;100.00;101637.81;5114046;28;20526;-73
2021/01/18 12:05:27;;;;;;;31.95;17.00;;;;;;;0.44;100.00;101639.97;5099732;28;20028;-74
2021/01/18 12:08:13;;;;;;;30.65;17.73;;;;;;;0.40;100.00;101641.53;5115133;28;20073;-73
2021/01/18 12:10:59;;;;;;;30.67;17.15;;;;;;;0.25;100.00;101640.09;5115120;28;20447;-73
2021/01/18 12:13:45;;;;;;;31.23;17.70;;;;;;;0.55;100.00;101639.53;5114408;28;20050;-74
2021/01/18 12:16:31;;;;;;;31.90;17.05;;;;;;;0.37;100.00;101635.41;5100146;28;20023;-73
2021/01/18 12:19:17;;;;;;;30.25;17.42;;;;;;;0.72;100.00;101638.44;5114960;28;20019;-74
2021/01/18 12:22:03;;;;;;;28.27;15.95;;;;;;;0.45;100.00;101636.56;5114862;28;20031;-73
2021/01/18 12:24:48;;;;;;;33.78;18.90;;;;;;;0.92;100.00;101637.47;5113474;28;20020;-74
2021/01/18 12:27:34;;;;;;;32.15;18.33;;;;;;;0.67;100.00;101641.66;5113687;28;20065;-74
2021/01/18 12:30:22;;;;;;;32.65;18.08;;;;;;;0.41;100.00;101642.41;5114111;28;20019;-74
2021/01/18 12:33:08;;;;;;;29.92;17.67;;;;;;;0.85;100.00;101642.34;5099851;28;20439;-73
2021/01/18 12:35:53;;;;;;;34.80;18.40;;;;;;;1.31;100.00;101637.97;5113925;28;20032;-73
2021/01/18 12:38:40;;;;;;;38.13;19.05;;;;;;;1.31;100.00;101643.13;5114198;28;20020;-74
2021/01/18 12:41:25;;;;;;;35.92;19.33;;;;;;;0.98;100.00;101641.97;5099770;28;20027;-74
2021/01/18 12:44:11;;;;;;;32.58;19.13;;;;;;;1.00;100.00;101640.34;5113793;28;20055;-73